createdAt,value
2022-12-11T00:00:27.260Z,100490.81
2022-12-11T00:02:55.028Z,100487.50
2022-12-11T00:05:22.752Z,100492.66
2022-12-11T00:07:50.451Z,100488.13
2022-12-11T00:10:18.163Z,100486.91
2022-12-11T00:12:45.806Z,100482.53
2022-12-11T00:15:13.786Z,100479.03
2022-12-11T00:17:43.044Z,100481.28
2022-12-11T00:20:11.373Z,100480.69
2022-12-11T00:22:39.081Z,100479.84
2022-12-11T00:25:07.785Z,100485.63
2022-12-11T00:27:35.829Z,100479.00
2022-12-11T00:30:03.519Z,100480.84
2022-12-11T00:32:37.359Z,100475.47
2022-12-11T00:35:07.469Z,100477.75
2022-12-11T00:37:35.276Z,100477.13
2022-12-11T00:40:03.178Z,100473.59
2022-12-11T00:42:30.836Z,100478.38
2022-12-11T00:44:58.522Z,100473.81
2022-12-11T00:47:26.195Z,100475.69
2022-12-11T00:49:53.875Z,100468.03
2022-12-11T00:52:22.831Z,100475.69
2022-12-11T00:54:50.478Z,100475.69
2022-12-11T00:57:18.131Z,100472.19
2022-12-11T00:59:45.746Z,100471.16
2022-12-11T01:02:13.694Z,100469.69
2022-12-11T01:04:41.345Z,100469.06
2022-12-11T01:07:09.001Z,100479.00
2022-12-11T01:09:55.627Z,100481.69
2022-12-11T01:12:23.251Z,100477.94
2022-12-11T01:14:50.961Z,100472.59
2022-12-11T01:17:18.693Z,100476.31
2022-12-11T01:19:46.451Z,100483.97
2022-12-11T01:22:14.141Z,100486.06
2022-12-11T01:24:43.376Z,100483.78
2022-12-11T01:27:11.070Z,100490.63
2022-12-11T01:29:38.783Z,100489.16
2022-12-11T01:32:06.474Z,100489.78
2022-12-11T01:34:34.624Z,100488.75
2022-12-11T01:37:02.365Z,100489.97
2022-12-11T01:39:30.025Z,100486.25
2022-12-11T01:41:59.412Z,100479.63
2022-12-11T01:45:19.022Z,100473.44
2022-12-11T01:47:46.720Z,100481.91
2022-12-11T01:50:14.714Z,100475.09
2022-12-11T01:52:44.398Z,100475.47
2022-12-11T01:55:12.525Z,100481.69
2022-12-11T01:57:44.714Z,100480.47
2022-12-11T02:00:13.394Z,100486.47
2022-12-11T02:02:41.420Z,100483.97
2022-12-11T02:05:10.300Z,100483.34
2022-12-11T02:07:44.770Z,100491.03
2022-12-11T02:10:13.686Z,100480.03
2022-12-11T02:12:52.406Z,100479.63
2022-12-11T02:15:27.904Z,100483.13
2022-12-11T02:18:04.279Z,100487.50
2022-12-11T02:20:37.447Z,100495.16
2022-12-11T02:23:28.757Z,100493.06
2022-12-11T02:26:08.095Z,100490.38
2022-12-11T02:28:40.209Z,100487.91
2022-12-11T02:31:13.785Z,100490.59
2022-12-11T02:33:47.052Z,100489.75
2022-12-11T02:36:18.490Z,100476.28
2022-12-11T02:38:50.728Z,100476.09
2022-12-11T02:41:21.263Z,100480.25
2022-12-11T02:43:51.593Z,100471.13
2022-12-11T02:46:21.026Z,100467.41
2022-12-11T02:48:51.871Z,100469.69
2022-12-11T02:51:24.827Z,100464.50
2022-12-11T02:53:55.741Z,100470.72
2022-12-11T02:56:30.243Z,100468.66
2022-12-11T02:59:02.264Z,100469.28
2022-12-11T03:01:30.087Z,100469.50
2022-12-11T03:03:59.407Z,100464.09
2022-12-11T03:06:33.515Z,100472.59
2022-12-11T03:09:01.166Z,100466.16
2022-12-11T03:11:28.864Z,100464.50
2022-12-11T03:13:56.586Z,100468.63
2022-12-11T03:16:33.345Z,100469.06
2022-12-11T03:19:12.991Z,100462.66
2022-12-11T03:21:46.614Z,100470.72
2022-12-11T03:24:21.090Z,100464.31
2022-12-11T03:26:56.626Z,100459.78
2022-12-11T03:29:30.956Z,100462.47
2022-12-11T03:32:05.900Z,100468.03
2022-12-11T03:34:39.571Z,100471.16
2022-12-11T03:37:09.860Z,100467.59
2022-12-11T03:39:40.751Z,100470.50
2022-12-11T03:42:12.343Z,100461.41
2022-12-11T03:44:41.433Z,100466.97
2022-12-11T03:47:11.665Z,100461.81
2022-12-11T03:49:41.447Z,100459.34
2022-12-11T03:52:11.515Z,100452.09
2022-12-11T03:54:40.995Z,100449.00
2022-12-11T03:57:12.059Z,100456.22
2022-12-11T03:59:39.738Z,100453.75
2022-12-11T04:02:11.035Z,100451.06
2022-12-11T04:04:41.730Z,100451.66
2022-12-11T04:07:10.156Z,100447.94
2022-12-11T04:09:37.963Z,100450.66
2022-12-11T04:12:05.877Z,100452.28
2022-12-11T04:14:51.140Z,100453.97
2022-12-11T04:17:39.907Z,100449.38
2022-12-11T04:20:28.466Z,100451.06
2022-12-11T04:23:13.723Z,100447.31
2022-12-11T04:25:41.444Z,100450.22
2022-12-11T04:28:09.210Z,100448.56
2022-12-11T04:30:36.938Z,100450.22
2022-12-11T04:33:04.744Z,100445.44
2022-12-11T04:35:33.802Z,100443.16
2022-12-11T04:38:02.091Z,100449.81
2022-12-11T04:40:29.824Z,100449.81
2022-12-11T04:42:57.510Z,100448.97
2022-12-11T04:45:25.126Z,100442.13
2022-12-11T04:47:52.825Z,100437.38
2022-12-11T04:50:20.536Z,100444.44
2022-12-11T04:52:49.539Z,100450.22
2022-12-11T04:55:17.232Z,100454.38
2022-12-11T04:57:44.911Z,100459.75
2022-12-11T05:00:14.313Z,100447.91
2022-12-11T05:02:42.804Z,100452.69
2022-12-11T05:05:11.955Z,100458.50
2022-12-11T05:07:41.906Z,100448.34
2022-12-11T05:10:11.569Z,100445.88
2022-12-11T05:12:39.175Z,100445.88
2022-12-11T05:15:08.489Z,100447.31
2022-12-11T05:17:36.431Z,100442.13
2022-12-11T05:20:04.577Z,100445.66
2022-12-11T05:22:32.661Z,100440.47
2022-12-11T05:25:00.445Z,100429.09
2022-12-11T05:27:29.763Z,100439.25
2022-12-11T05:29:59.497Z,100429.31
2022-12-11T05:32:27.486Z,100443.78
2022-12-11T05:34:55.147Z,100435.53
2022-12-11T05:37:23.083Z,100446.28
2022-12-11T05:39:50.714Z,100440.72
2022-12-11T05:42:18.339Z,100442.34
2022-12-11T05:44:47.450Z,100438.81
2022-12-11T05:47:15.120Z,100432.00
2022-12-11T05:49:43.433Z,100435.72
2022-12-11T05:52:11.157Z,100429.53
2022-12-11T05:54:38.999Z,100427.03
2022-12-11T05:57:06.672Z,100423.94
2022-12-11T05:59:34.388Z,100416.28
2022-12-11T06:02:03.589Z,100411.94
2022-12-11T06:04:31.271Z,100412.16
2022-12-11T06:06:58.930Z,100416.69
2022-12-11T06:09:26.634Z,100416.69
2022-12-11T06:11:54.259Z,100421.25
2022-12-11T06:14:21.942Z,100423.09
2022-12-11T06:16:50.117Z,100426.63
2022-12-11T06:19:19.354Z,100426.19
2022-12-11T06:21:48.786Z,100436.72
2022-12-11T06:24:16.390Z,100433.00
2022-12-11T06:26:44.016Z,100440.41
2022-12-11T06:29:13.051Z,100446.03
2022-12-11T06:31:40.968Z,100445.59
2022-12-11T06:34:09.477Z,100439.00
2022-12-11T06:36:38.519Z,100450.97
2022-12-11T06:39:06.190Z,100450.16
2022-12-11T06:41:33.864Z,100449.13
2022-12-11T06:44:01.527Z,100443.72
2022-12-11T06:46:29.251Z,100461.53
2022-12-11T06:48:56.997Z,100458.03
2022-12-11T06:51:24.943Z,100453.47
2022-12-11T06:53:54.771Z,100461.16
2022-12-11T06:56:23.594Z,100464.81
2022-12-11T06:58:51.884Z,100463.59
2022-12-11T07:01:21.475Z,100468.72
2022-12-11T07:03:49.833Z,100460.25
2022-12-11T07:06:17.528Z,100472.03
2022-12-11T07:08:45.507Z,100470.34
2022-12-11T07:11:17.403Z,100467.69
2022-12-11T07:13:45.859Z,100473.28
2022-12-11T07:16:15.235Z,100466.81
2022-12-11T07:18:44.755Z,100470.38
2022-12-11T07:21:14.837Z,100463.94
2022-12-11T07:23:42.661Z,100468.09
2022-12-11T07:26:12.551Z,100468.50
2022-12-11T07:28:42.744Z,100469.34
2022-12-11T07:31:12.164Z,100471.00
2022-12-11T07:33:40.091Z,100485.88
2022-12-11T07:38:32.951Z,100477.97
2022-12-11T07:41:02.233Z,100474.91
2022-12-11T07:43:30.294Z,100485.88
2022-12-11T07:46:03.314Z,100495.09
2022-12-11T07:48:31.142Z,100486.00
2022-12-11T07:51:09.585Z,100491.38
2022-12-11T07:53:37.298Z,100491.00
2022-12-11T07:56:05.248Z,100484.78
2022-12-11T07:58:32.879Z,100485.66
2022-12-11T08:01:02.243Z,100493.31
2022-12-11T08:03:29.872Z,100488.75
2022-12-11T08:05:57.513Z,100493.28
2022-12-11T08:08:25.224Z,100484.97
2022-12-11T08:10:52.857Z,100484.75
2022-12-11T08:13:20.544Z,100481.66
2022-12-11T08:15:48.899Z,100486.44
2022-12-11T08:18:17.904Z,100485.81
2022-12-11T08:20:45.526Z,100490.38
2022-12-11T08:23:13.224Z,100487.03
2022-12-11T08:25:40.900Z,100494.50
2022-12-11T08:28:08.595Z,100491.41
2022-12-11T08:30:36.348Z,100488.50
2022-12-11T08:33:04.042Z,100493.47
2022-12-11T08:35:33.091Z,100489.56
2022-12-11T08:38:00.680Z,100492.66
2022-12-11T08:40:28.338Z,100491.63
2022-12-11T08:42:56.059Z,100489.97
2022-12-11T08:45:23.696Z,100497.38
2022-12-11T08:47:51.311Z,100496.16
2022-12-11T08:50:19.171Z,100495.75
2022-12-11T08:52:48.271Z,100495.97
2022-12-11T08:55:16.271Z,100491.44
2022-12-11T08:57:43.957Z,100492.91
2022-12-11T09:00:15.129Z,100490.22
2022-12-11T09:02:42.856Z,100492.28
2022-12-11T09:05:11.064Z,100490.84
2022-12-11T09:07:39.243Z,100495.41
2022-12-11T09:10:09.987Z,100498.72
2022-12-11T09:12:38.387Z,100503.47
2022-12-11T09:15:07.030Z,100498.09
2022-12-11T09:17:35.383Z,100500.56
2022-12-11T09:20:03.386Z,100498.88
2022-12-11T09:22:33.127Z,100490.63
2022-12-11T09:25:00.806Z,100499.56
2022-12-11T09:27:30.223Z,100492.31
2022-12-11T09:29:57.904Z,100490.84
2022-12-11T09:32:25.509Z,100484.25
2022-12-11T09:34:53.263Z,100481.16
2022-12-11T09:37:20.911Z,100474.72
2022-12-11T09:39:48.729Z,100472.03
2022-12-11T09:42:22.196Z,100478.88
2022-12-11T09:44:55.083Z,100472.28
2022-12-11T09:47:28.747Z,100473.72
2022-12-11T09:50:04.426Z,100479.31
2022-12-11T09:52:37.322Z,100467.53
2022-12-11T09:55:14.065Z,100473.31
2022-12-11T09:57:52.670Z,100464.03
2022-12-11T10:00:28.490Z,100463.59
2022-12-11T10:03:17.408Z,100456.38
2022-12-11T10:05:53.519Z,100445.63
2022-12-11T10:08:31.519Z,100450.78
2022-12-11T10:11:06.800Z,100445.63
2022-12-11T10:13:45.998Z,100449.13
2022-12-11T10:16:27.437Z,100443.53
2022-12-11T10:18:55.176Z,100444.38
2022-12-11T10:21:23.396Z,100443.09
2022-12-11T10:23:55.560Z,100432.34
2022-12-11T10:26:24.946Z,100435.28
2022-12-11T10:28:52.662Z,100431.16
2022-12-11T10:31:32.833Z,100436.13
2022-12-11T10:34:02.920Z,100427.22
2022-12-11T10:36:32.845Z,100427.84
2022-12-11T10:39:00.851Z,100424.75
2022-12-11T10:41:39.097Z,100427.44
2022-12-11T10:44:18.175Z,100418.53
2022-12-11T10:46:48.250Z,100420.19
2022-12-11T10:49:24.948Z,100420.81
2022-12-11T10:51:55.329Z,100414.81
2022-12-11T10:54:31.817Z,100409.44
2022-12-11T10:57:01.343Z,100414.00
2022-12-11T10:59:36.455Z,100413.16
2022-12-11T11:02:07.019Z,100412.94
2022-12-11T11:04:37.631Z,100405.91
2022-12-11T11:07:13.572Z,100398.88
2022-12-11T11:09:41.865Z,100403.25
2022-12-11T11:12:21.343Z,100402.22
2022-12-11T11:15:00.098Z,100400.56
2022-12-11T11:17:34.463Z,100399.91
2022-12-11T11:20:14.096Z,100394.94
2022-12-11T11:22:45.831Z,100397.44
2022-12-11T11:25:19.468Z,100389.78
2022-12-11T11:28:19.419Z,100397.84
2022-12-11T11:31:00.093Z,100386.50
2022-12-11T11:33:30.422Z,100382.94
2022-12-11T11:36:00.314Z,100377.56
2022-12-11T11:38:31.662Z,100377.78
2022-12-11T11:41:14.515Z,100374.25
2022-12-11T11:43:46.901Z,100360.81
2022-12-11T11:46:18.766Z,100357.53
2022-12-11T11:48:54.956Z,100362.69
2022-12-11T11:51:28.488Z,100361.25
2022-12-11T11:54:00.175Z,100357.13
2022-12-11T11:56:31.387Z,100346.53
2022-12-11T11:59:08.400Z,100346.97
2022-12-11T12:01:36.143Z,100337.44
2022-12-11T12:04:06.155Z,100349.25
2022-12-11T12:06:50.517Z,100339.31
2022-12-11T12:09:29.475Z,100342.22
2022-12-11T12:12:06.698Z,100343.44
2022-12-11T12:14:57.792Z,100338.25
2022-12-11T12:17:36.005Z,100337.22
2022-12-11T12:20:15.811Z,100338.06
2022-12-11T12:23:13.106Z,100342.81
2022-12-11T12:25:46.364Z,100345.50
2022-12-11T12:28:28.497Z,100351.31
2022-12-11T12:31:07.921Z,100344.25
2022-12-11T12:33:46.999Z,100346.34
2022-12-11T12:36:22.961Z,100342.00
2022-12-11T12:38:56.151Z,100344.25
2022-12-11T12:41:29.912Z,100341.38
2022-12-11T12:44:13.727Z,100333.09
2022-12-11T12:46:52.334Z,100330.63
2022-12-11T12:49:32.216Z,100334.13
2022-12-11T12:52:02.722Z,100331.84
2022-12-11T12:54:33.078Z,100334.13
2022-12-11T12:57:00.862Z,100333.28
2022-12-11T12:59:28.966Z,100330.19
2022-12-11T13:01:59.349Z,100332.47
2022-12-11T13:04:55.923Z,100333.69
2022-12-11T13:07:29.815Z,100329.97
2022-12-11T13:10:04.985Z,100328.53
2022-12-11T13:12:35.779Z,100322.75
2022-12-11T13:15:03.393Z,100328.50
2022-12-11T13:17:39.376Z,100327.88
2022-12-11T13:20:19.042Z,100333.50
2022-12-11T13:22:55.385Z,100327.28
2022-12-11T13:25:27.314Z,100327.50
2022-12-11T13:28:05.840Z,100328.72
2022-12-11T13:30:34.480Z,100318.59
2022-12-11T13:33:05.610Z,100322.94
2022-12-11T13:35:35.339Z,100329.16
2022-12-11T13:38:08.943Z,100325.19
2022-12-11T13:40:40.538Z,100327.69
2022-12-11T13:43:18.754Z,100326.28
2022-12-11T13:45:50.719Z,100327.50
2022-12-11T13:48:26.705Z,100319.44
2022-12-11T13:50:55.823Z,100314.66
2022-12-11T13:53:24.962Z,100305.75
2022-12-11T13:56:00.029Z,100311.34
2022-12-11T13:58:29.053Z,100304.50
2022-12-11T14:01:07.472Z,100307.63
2022-12-11T14:03:36.674Z,100307.63
2022-12-11T14:06:04.668Z,100300.56
2022-12-11T14:08:37.136Z,100299.31
2022-12-11T14:11:06.174Z,100299.94
2022-12-11T14:13:36.338Z,100293.75
2022-12-11T14:16:04.930Z,100295.41
2022-12-11T14:18:35.823Z,100293.94
2022-12-11T14:21:06.184Z,100293.53
2022-12-11T14:23:35.698Z,100292.28
2022-12-11T14:26:06.510Z,100290.03
2022-12-11T14:28:39.094Z,100291.69
2022-12-11T14:31:07.822Z,100291.06
2022-12-11T14:33:40.717Z,100287.53
2022-12-11T14:36:10.272Z,100289.19
2022-12-11T14:38:45.987Z,100284.84
2022-12-11T14:41:18.608Z,100288.19
2022-12-11T14:43:52.358Z,100285.88
2022-12-11T14:46:23.825Z,100286.91
2022-12-11T14:49:00.792Z,100290.03
2022-12-11T14:51:32.292Z,100297.66
2022-12-11T14:54:02.539Z,100302.00
2022-12-11T14:56:31.223Z,100292.91
2022-12-11T14:59:01.798Z,100299.75
2022-12-11T15:01:31.061Z,100291.88
2022-12-11T15:04:07.750Z,100295.81
2022-12-11T15:06:37.106Z,100289.78
2022-12-11T15:09:18.950Z,100298.28
2022-12-11T15:11:48.176Z,100292.47
2022-12-11T15:14:19.295Z,100285.44
2022-12-11T15:16:49.039Z,100287.50
2022-12-11T15:19:21.872Z,100292.09
2022-12-11T15:21:50.188Z,100288.97
2022-12-11T15:24:29.394Z,100296.22
2022-12-11T15:26:59.854Z,100298.28
2022-12-11T15:29:31.982Z,100304.69
2022-12-11T15:32:05.486Z,100302.63
2022-12-11T15:34:34.841Z,100300.34
2022-12-11T15:37:02.571Z,100300.34
2022-12-11T15:39:31.554Z,100295.78
2022-12-11T15:41:59.443Z,100293.31
2022-12-11T15:44:27.085Z,100288.56
2022-12-11T15:46:54.754Z,100292.09
2022-12-11T15:49:24.169Z,100289.22
2022-12-11T15:51:52.615Z,100282.56
2022-12-11T15:54:20.259Z,100294.56
2022-12-11T15:56:49.246Z,100294.97
2022-12-11T15:59:17.099Z,100293.94
2022-12-11T16:01:45.214Z,100291.69
2022-12-11T16:04:12.879Z,100293.31
2022-12-11T16:06:45.144Z,100298.69
2022-12-11T16:09:12.812Z,100300.97
2022-12-11T16:11:40.450Z,100297.44
2022-12-11T16:14:09.460Z,100300.97
2022-12-11T16:16:37.110Z,100303.72
2022-12-11T16:19:04.727Z,100292.28
2022-12-11T16:21:32.373Z,100306.59
2022-12-11T16:24:00.094Z,100293.13
2022-12-11T16:26:27.725Z,100296.88
2022-12-11T16:28:55.404Z,100299.13
2022-12-11T16:31:24.469Z,100287.53
2022-12-11T16:33:52.143Z,100294.38
2022-12-11T16:36:21.143Z,100293.56
2022-12-11T16:38:54.006Z,100295.84
2022-12-11T16:41:22.608Z,100292.97
2022-12-11T16:43:50.310Z,100293.75
2022-12-11T16:46:18.555Z,100285.88
2022-12-11T16:48:48.025Z,100285.06
2022-12-11T16:51:16.067Z,100287.53
2022-12-11T16:53:43.763Z,100282.19
2022-12-11T16:56:11.419Z,100274.31
2022-12-11T16:58:40.491Z,100276.16
2022-12-11T17:01:11.996Z,100274.31
2022-12-11T17:03:41.258Z,100276.75
2022-12-11T17:06:12.715Z,100266.84
2022-12-11T17:08:42.529Z,100278.47
2022-12-11T17:11:11.810Z,100273.88
2022-12-11T17:13:39.786Z,100279.06
2022-12-11T17:16:08.895Z,100270.16
2022-12-11T17:18:36.902Z,100273.69
2022-12-11T17:21:07.699Z,100277.63
2022-12-11T17:23:37.053Z,100282.75
2022-12-11T17:26:05.336Z,100268.06
2022-12-11T17:28:33.222Z,100274.31
2022-12-11T17:31:00.981Z,100270.38
2022-12-11T17:33:28.760Z,100270.59
2022-12-11T17:35:57.163Z,100269.13
2022-12-11T17:38:24.833Z,100268.50
2022-12-11T17:40:54.241Z,100270.81
2022-12-11T17:43:21.982Z,100266.66
2022-12-11T17:45:52.677Z,100266.66
2022-12-11T17:48:22.326Z,100272.06
2022-12-11T17:50:50.988Z,100263.78
2022-12-11T17:53:20.007Z,100266.06
2022-12-11T17:55:48.270Z,100263.13
2022-12-11T17:58:20.335Z,100265.63
2022-12-11T18:00:49.436Z,100268.31
2022-12-11T18:03:17.183Z,100266.25
2022-12-11T18:05:46.322Z,100260.84
2022-12-11T18:08:14.755Z,100268.31
2022-12-11T18:10:42.767Z,100269.56
2022-12-11T18:13:11.015Z,100261.91
2022-12-11T18:15:40.402Z,100261.53
2022-12-11T18:18:08.628Z,100259.22
2022-12-11T18:20:37.294Z,100267.50
2022-12-11T18:23:05.493Z,100263.16
2022-12-11T18:25:33.802Z,100260.69
2022-12-11T18:28:01.595Z,100262.94
2022-12-11T18:30:29.456Z,100271.63
2022-12-11T18:32:58.592Z,100260.25
2022-12-11T18:35:26.435Z,100259.22
2022-12-11T18:37:54.112Z,100258.81
2022-12-11T18:40:21.738Z,100253.03
2022-12-11T18:42:49.519Z,100254.25
2022-12-11T18:45:17.338Z,100255.09
2022-12-11T18:47:45.068Z,100261.91
2022-12-11T18:50:14.224Z,100257.16
2022-12-11T18:52:41.939Z,100255.28
2022-12-11T18:55:10.147Z,100260.69
2022-12-11T18:57:38.049Z,100256.13
2022-12-11T19:00:07.337Z,100254.69
2022-12-11T19:02:35.179Z,100261.28
2022-12-11T19:05:02.886Z,100258.00
2022-12-11T19:07:32.300Z,100261.72
2022-12-11T19:09:59.955Z,100262.53
2022-12-11T19:12:27.539Z,100262.94
2022-12-11T19:14:55.275Z,100265.63
2022-12-11T19:17:22.932Z,100257.38
2022-12-11T19:19:50.612Z,100269.16
2022-12-11T19:22:18.289Z,100265.81
2022-12-11T19:24:47.342Z,100263.97
2022-12-11T19:27:15.030Z,100267.91
2022-12-11T19:29:42.674Z,100265.03
2022-12-11T19:32:10.344Z,100266.06
2022-12-11T19:34:38.451Z,100261.91
2022-12-11T19:37:06.518Z,100265.03
2022-12-11T19:39:34.379Z,100266.91
2022-12-11T19:42:03.411Z,100266.66
2022-12-11T19:44:31.112Z,100269.78
2022-12-11T19:46:58.833Z,100272.28
2022-12-11T19:49:26.529Z,100272.66
2022-12-11T19:51:54.182Z,100270.41
2022-12-11T19:54:21.891Z,100276.41
2022-12-11T19:56:49.618Z,100282.00
2022-12-11T19:59:19.221Z,100271.00
2022-12-11T20:01:48.004Z,100277.63
2022-12-11T20:04:17.419Z,100285.91
2022-12-11T20:06:46.820Z,100280.09
2022-12-11T20:09:15.445Z,100275.53
2022-12-11T20:11:45.381Z,100273.09
2022-12-11T20:14:20.963Z,100272.03
2022-12-11T20:19:36.793Z,100268.72
2022-12-11T20:22:04.555Z,100263.56
2022-12-11T20:24:32.256Z,100264.38
2022-12-11T20:27:00.108Z,100269.53
2022-12-11T20:29:29.241Z,100270.16
2022-12-11T20:31:59.215Z,100259.22
2022-12-11T20:34:26.992Z,100268.31
2022-12-11T20:36:55.549Z,100274.13
2022-12-11T20:39:23.405Z,100262.50
2022-12-11T20:41:51.131Z,100272.66
2022-12-11T20:44:19.997Z,100268.94
2022-12-11T20:46:49.236Z,100272.91
2022-12-11T20:49:16.873Z,100271.00
2022-12-11T20:51:44.960Z,100262.94
2022-12-11T20:54:13.140Z,100271.19
2022-12-11T20:56:41.018Z,100271.00
2022-12-11T20:59:08.724Z,100269.34
2022-12-11T21:01:36.415Z,100265.44
2022-12-11T21:04:05.452Z,100263.38
2022-12-11T21:06:35.523Z,100263.78
2022-12-11T21:09:05.643Z,100271.03
2022-12-11T21:11:33.720Z,100261.91
2022-12-11T21:14:01.519Z,100262.94
2022-12-11T21:16:29.345Z,100259.03
2022-12-11T21:18:58.053Z,100256.53
2022-12-11T21:21:27.230Z,100257.97
2022-12-11T21:23:55.381Z,100257.78
2022-12-11T21:26:23.163Z,100255.50
2022-12-11T21:28:51.370Z,100253.03
2022-12-11T21:31:20.071Z,100250.97
2022-12-11T21:33:48.147Z,100242.91
2022-12-11T21:36:16.948Z,100250.97
2022-12-11T21:38:47.555Z,100246.81
2022-12-11T21:41:18.198Z,100248.69
2022-12-11T21:44:40.797Z,100246.44
2022-12-11T21:46:35.454Z,100237.94
2022-12-11T21:49:03.320Z,100233.78
2022-12-11T21:51:37.690Z,100230.91
2022-12-11T21:54:10.266Z,100238.34
2022-12-11T21:56:37.979Z,100232.75
2022-12-11T21:59:06.086Z,100235.41
2022-12-11T22:01:38.092Z,100233.78
2022-12-11T22:04:06.542Z,100231.94
2022-12-11T22:06:34.514Z,100232.56
2022-12-11T22:09:02.602Z,100235.63
2022-12-11T22:11:34.207Z,100239.78
2022-12-11T22:14:02.358Z,100234.81
2022-12-11T22:16:30.263Z,100235.25
2022-12-11T22:18:58.082Z,100235.88
2022-12-11T22:21:26.119Z,100245.38
2022-12-11T22:23:53.835Z,100243.91
2022-12-11T22:26:23.583Z,100253.22
2022-12-11T22:28:53.461Z,100252.41
2022-12-11T22:31:23.839Z,100256.53
2022-12-11T22:33:53.583Z,100248.69
2022-12-11T22:36:21.698Z,100252.59
2022-12-11T22:38:49.384Z,100258.59
2022-12-11T22:41:22.461Z,100262.94
2022-12-11T22:43:51.907Z,100271.88
2022-12-11T22:46:21.018Z,100272.06
2022-12-11T22:48:48.842Z,100264.22
2022-12-11T22:51:17.188Z,100267.31
2022-12-11T22:53:44.850Z,100265.03
2022-12-11T22:56:14.663Z,100264.00
2022-12-11T22:58:42.762Z,100269.59
2022-12-11T23:01:14.248Z,100264.22
2022-12-11T23:03:42.504Z,100265.03
2022-12-11T23:06:13.158Z,100264.59
2022-12-11T23:08:42.127Z,100252.41
2022-12-11T23:11:14.134Z,100258.41
2022-12-11T23:13:41.860Z,100252.19
2022-12-11T23:16:12.016Z,100250.94
2022-12-11T23:18:40.091Z,100247.66
2022-12-11T23:21:08.428Z,100250.94
2022-12-11T23:23:36.130Z,100245.75
2022-12-11T23:26:04.731Z,100246.81
2022-12-11T23:28:32.400Z,100242.28
2022-12-11T23:31:00.115Z,100233.97
2022-12-11T23:33:29.768Z,100229.44
2022-12-11T23:35:58.200Z,100230.47
2022-12-11T23:38:26.115Z,100229.88
2022-12-11T23:40:54.419Z,100225.53
2022-12-11T23:43:23.201Z,100218.69
2022-12-11T23:45:50.871Z,100217.66
2022-12-11T23:48:18.703Z,100205.91
2022-12-11T23:50:48.320Z,100193.88
2022-12-11T23:53:16.629Z,100190.81
2022-12-11T23:55:46.182Z,100195.75
2022-12-11T23:58:13.880Z,100196.38
